sensor_id;sensor_type;location;lat;lon;timestamp;P1;durP1;ratioP1;P2;durP2;ratioP2
70825;SDS011;58446;41.490;22.098;2022-11-23T00:01:25;16.90;;;11.07;;
70825;SDS011;58446;41.490;22.098;2022-11-23T00:03:56;16.98;;;10.40;;
70825;SDS011;58446;41.490;22.098;2022-11-23T00:06:23;18.50;;;10.73;;
70825;SDS011;58446;41.490;22.098;2022-11-23T00:08:49;16.63;;;10.43;;
70825;SDS011;58446;41.490;22.098;2022-11-23T00:11:16;16.15;;;9.75;;
70825;SDS011;58446;41.490;22.098;2022-11-23T00:13:42;15.33;;;9.97;;
70825;SDS011;58446;41.490;22.098;2022-11-23T00:16:13;16.10;;;10.10;;
70825;SDS011;58446;41.490;22.098;2022-11-23T00:18:43;15.43;;;9.70;;
70825;SDS011;58446;41.490;22.098;2022-11-23T00:21:12;14.60;;;9.40;;
70825;SDS011;58446;41.490;22.098;2022-11-23T00:23:40;15.10;;;9.52;;
70825;SDS011;58446;41.490;22.098;2022-11-23T00:26:06;15.98;;;10.10;;
70825;SDS011;58446;41.490;22.098;2022-11-23T00:28:32;13.40;;;9.27;;
70825;SDS011;58446;41.490;22.098;2022-11-23T00:31:01;16.50;;;10.63;;
70825;SDS011;58446;41.490;22.098;2022-11-23T00:33:27;16.25;;;10.85;;
70825;SDS011;58446;41.490;22.098;2022-11-23T00:35:59;14.40;;;10.10;;
70825;SDS011;58446;41.490;22.098;2022-11-23T00:38:27;16.27;;;10.25;;
70825;SDS011;58446;41.490;22.098;2022-11-23T00:41:03;14.88;;;9.80;;
70825;SDS011;58446;41.490;22.098;2022-11-23T00:43:30;12.63;;;8.57;;
70825;SDS011;58446;41.490;22.098;2022-11-23T00:48:40;14.00;;;8.37;;
70825;SDS011;58446;41.490;22.098;2022-11-23T00:51:09;14.38;;;8.90;;
70825;SDS011;58446;41.490;22.098;2022-11-23T00:53:37;14.88;;;9.25;;
70825;SDS011;58446;41.490;22.098;2022-11-23T00:56:03;21.45;;;12.27;;
70825;SDS011;58446;41.490;22.098;2022-11-23T00:58:29;22.02;;;14.07;;
70825;SDS011;58446;41.490;22.098;2022-11-23T01:01:08;25.00;;;15.40;;
70825;SDS011;58446;41.490;22.098;2022-11-23T01:03:37;19.65;;;12.25;;
70825;SDS011;58446;41.490;22.098;2022-11-23T01:06:05;30.13;;;17.48;;
70825;SDS011;58446;41.490;22.098;2022-11-23T01:08:32;24.83;;;16.85;;
70825;SDS011;58446;41.490;22.098;2022-11-23T01:11:03;24.42;;;16.67;;
70825;SDS011;58446;41.490;22.098;2022-11-23T01:13:31;24.20;;;13.83;;
70825;SDS011;58446;41.490;22.098;2022-11-23T01:15:57;20.02;;;12.90;;
70825;SDS011;58446;41.490;22.098;2022-11-23T01:18:24;21.75;;;13.85;;
70825;SDS011;58446;41.490;22.098;2022-11-23T01:20:49;19.17;;;13.25;;
70825;SDS011;58446;41.490;22.098;2022-11-23T01:23:15;19.03;;;13.10;;
70825;SDS011;58446;41.490;22.098;2022-11-23T01:25:41;22.30;;;14.40;;
70825;SDS011;58446;41.490;22.098;2022-11-23T01:28:07;20.40;;;14.03;;
70825;SDS011;58446;41.490;22.098;2022-11-23T01:30:33;23.52;;;14.88;;
70825;SDS011;58446;41.490;22.098;2022-11-23T01:33:01;18.45;;;13.27;;
70825;SDS011;58446;41.490;22.098;2022-11-23T01:35:27;19.80;;;12.55;;
70825;SDS011;58446;41.490;22.098;2022-11-23T01:37:53;20.27;;;13.50;;
70825;SDS011;58446;41.490;22.098;2022-11-23T01:40:19;21.00;;;13.73;;
70825;SDS011;58446;41.490;22.098;2022-11-23T01:42:50;17.77;;;11.35;;
70825;SDS011;58446;41.490;22.098;2022-11-23T01:45:32;16.00;;;10.07;;
70825;SDS011;58446;41.490;22.098;2022-11-23T01:47:59;12.35;;;7.43;;
70825;SDS011;58446;41.490;22.098;2022-11-23T01:50:26;10.68;;;6.97;;
70825;SDS011;58446;41.490;22.098;2022-11-23T01:52:51;9.30;;;4.67;;
70825;SDS011;58446;41.490;22.098;2022-11-23T01:55:17;6.90;;;3.70;;
70825;SDS011;58446;41.490;22.098;2022-11-23T01:57:43;8.20;;;4.60;;
70825;SDS011;58446;41.490;22.098;2022-11-23T02:00:10;6.65;;;3.78;;
70825;SDS011;58446;41.490;22.098;2022-11-23T02:02:37;6.00;;;4.00;;
70825;SDS011;58446;41.490;22.098;2022-11-23T02:05:08;6.07;;;3.72;;
70825;SDS011;58446;41.490;22.098;2022-11-23T02:07:35;5.82;;;3.92;;
70825;SDS011;58446;41.490;22.098;2022-11-23T02:10:02;6.72;;;3.92;;
70825;SDS011;58446;41.490;22.098;2022-11-23T02:12:28;6.38;;;3.15;;
70825;SDS011;58446;41.490;22.098;2022-11-23T02:14:54;6.73;;;3.63;;
70825;SDS011;58446;41.490;22.098;2022-11-23T02:17:20;7.45;;;4.72;;
70825;SDS011;58446;41.490;22.098;2022-11-23T02:28:28;7.97;;;4.75;;
70825;SDS011;58446;41.490;22.098;2022-11-23T02:31:00;11.80;;;5.78;;
70825;SDS011;58446;41.490;22.098;2022-11-23T02:33:27;9.70;;;6.07;;
70825;SDS011;58446;41.490;22.098;2022-11-23T02:35:54;9.15;;;5.82;;
70825;SDS011;58446;41.490;22.098;2022-11-23T02:38:23;8.82;;;5.00;;
70825;SDS011;58446;41.490;22.098;2022-11-23T02:40:55;9.00;;;5.60;;
70825;SDS011;58446;41.490;22.098;2022-11-23T02:43:22;9.13;;;5.35;;
70825;SDS011;58446;41.490;22.098;2022-11-23T02:45:58;12.97;;;6.03;;
70825;SDS011;58446;41.490;22.098;2022-11-23T02:48:26;10.57;;;5.20;;
70825;SDS011;58446;41.490;22.098;2022-11-23T02:50:52;8.70;;;5.03;;
70825;SDS011;58446;41.490;22.098;2022-11-23T02:53:19;8.67;;;4.00;;
70825;SDS011;58446;41.490;22.098;2022-11-23T02:55:44;8.85;;;5.80;;
70825;SDS011;58446;41.490;22.098;2022-11-23T02:58:10;9.93;;;5.00;;
70825;SDS011;58446;41.490;22.098;2022-11-23T03:00:36;8.97;;;5.47;;
70825;SDS011;58446;41.490;22.098;2022-11-23T03:03:04;8.10;;;4.65;;
70825;SDS011;58446;41.490;22.098;2022-11-23T03:05:30;16.27;;;4.22;;
70825;SDS011;58446;41.490;22.098;2022-11-23T03:07:56;5.73;;;4.03;;
70825;SDS011;58446;41.490;22.098;2022-11-23T03:10:22;5.93;;;3.67;;
70825;SDS011;58446;41.490;22.098;2022-11-23T03:12:47;7.27;;;4.30;;
70825;SDS011;58446;41.490;22.098;2022-11-23T03:15:13;7.93;;;3.80;;
70825;SDS011;58446;41.490;22.098;2022-11-23T03:17:39;7.60;;;4.00;;
70825;SDS011;58446;41.490;22.098;2022-11-23T03:20:05;7.40;;;3.90;;
70825;SDS011;58446;41.490;22.098;2022-11-23T03:22:31;8.65;;;3.90;;
70825;SDS011;58446;41.490;22.098;2022-11-23T03:24:57;5.97;;;3.77;;
70825;SDS011;58446;41.490;22.098;2022-11-23T03:27:23;7.13;;;4.15;;
70825;SDS011;58446;41.490;22.098;2022-11-23T03:29:49;8.47;;;4.07;;
70825;SDS011;58446;41.490;22.098;2022-11-23T03:32:14;6.25;;;3.55;;
70825;SDS011;58446;41.490;22.098;2022-11-23T03:34:40;7.47;;;4.57;;
70825;SDS011;58446;41.490;22.098;2022-11-23T03:37:06;6.23;;;3.73;;
70825;SDS011;58446;41.490;22.098;2022-11-23T03:39:31;6.97;;;4.15;;
70825;SDS011;58446;41.490;22.098;2022-11-23T03:41:57;8.10;;;4.00;;
70825;SDS011;58446;41.490;22.098;2022-11-23T03:44:23;5.80;;;3.80;;
70825;SDS011;58446;41.490;22.098;2022-11-23T03:46:48;5.93;;;3.73;;
70825;SDS011;58446;41.490;22.098;2022-11-23T03:49:17;5.53;;;3.70;;
70825;SDS011;58446;41.490;22.098;2022-11-23T03:51:42;4.73;;;3.00;;
70825;SDS011;58446;41.490;22.098;2022-11-23T03:54:08;6.03;;;2.87;;
70825;SDS011;58446;41.490;22.098;2022-11-23T03:56:34;4.72;;;2.60;;
70825;SDS011;58446;41.490;22.098;2022-11-23T03:58:59;7.03;;;2.77;;
70825;SDS011;58446;41.490;22.098;2022-11-23T04:01:25;4.80;;;2.63;;
70825;SDS011;58446;41.490;22.098;2022-11-23T04:03:51;5.13;;;3.20;;
70825;SDS011;58446;41.490;22.098;2022-11-23T04:06:16;5.07;;;2.27;;
70825;SDS011;58446;41.490;22.098;2022-11-23T04:08:42;5.63;;;2.80;;
70825;SDS011;58446;41.490;22.098;2022-11-23T04:11:08;7.18;;;3.40;;
70825;SDS011;58446;41.490;22.098;2022-11-23T04:13:34;4.53;;;2.70;;
70825;SDS011;58446;41.490;22.098;2022-11-23T04:15:59;4.90;;;3.00;;
70825;SDS011;58446;41.490;22.098;2022-11-23T04:18:25;5.60;;;3.53;;
70825;SDS011;58446;41.490;22.098;2022-11-23T04:20:51;5.65;;;3.20;;
70825;SDS011;58446;41.490;22.098;2022-11-23T04:23:16;26.30;;;9.53;;
70825;SDS011;58446;41.490;22.098;2022-11-23T04:25:42;17.58;;;7.47;;
70825;SDS011;58446;41.490;22.098;2022-11-23T04:28:09;24.52;;;10.30;;
70825;SDS011;58446;41.490;22.098;2022-11-23T04:30:34;16.50;;;7.67;;
70825;SDS011;58446;41.490;22.098;2022-11-23T04:33:00;19.77;;;8.40;;
70825;SDS011;58446;41.490;22.098;2022-11-23T04:35:26;21.00;;;7.63;;
70825;SDS011;58446;41.490;22.098;2022-11-23T04:37:51;13.77;;;6.63;;
70825;SDS011;58446;41.490;22.098;2022-11-23T04:40:17;11.68;;;5.93;;
70825;SDS011;58446;41.490;22.098;2022-11-23T04:42:43;9.13;;;4.73;;
70825;SDS011;58446;41.490;22.098;2022-11-23T04:45:09;9.02;;;4.78;;
70825;SDS011;58446;41.490;22.098;2022-11-23T04:47:35;7.20;;;4.60;;
70825;SDS011;58446;41.490;22.098;2022-11-23T04:50:01;6.83;;;4.20;;
70825;SDS011;58446;41.490;22.098;2022-11-23T04:52:27;6.13;;;3.10;;
70825;SDS011;58446;41.490;22.098;2022-11-23T04:54:52;9.07;;;5.50;;
70825;SDS011;58446;41.490;22.098;2022-11-23T04:57:18;11.32;;;6.03;;
70825;SDS011;58446;41.490;22.098;2022-11-23T04:59:44;7.97;;;5.30;;
70825;SDS011;58446;41.490;22.098;2022-11-23T05:02:09;10.93;;;5.75;;
70825;SDS011;58446;41.490;22.098;2022-11-23T05:04:35;10.63;;;7.00;;
70825;SDS011;58446;41.490;22.098;2022-11-23T05:07:01;9.73;;;5.88;;
70825;SDS011;58446;41.490;22.098;2022-11-23T05:09:26;11.90;;;7.00;;
70825;SDS011;58446;41.490;22.098;2022-11-23T05:11:52;28.20;;;13.57;;
70825;SDS011;58446;41.490;22.098;2022-11-23T05:14:18;26.40;;;17.40;;
70825;SDS011;58446;41.490;22.098;2022-11-23T05:16:43;36.53;;;23.13;;
70825;SDS011;58446;41.490;22.098;2022-11-23T05:19:09;32.47;;;17.65;;
70825;SDS011;58446;41.490;22.098;2022-11-23T05:21:35;52.43;;;25.30;;
70825;SDS011;58446;41.490;22.098;2022-11-23T05:24:00;81.35;;;32.50;;
70825;SDS011;58446;41.490;22.098;2022-11-23T05:26:26;58.27;;;25.03;;
70825;SDS011;58446;41.490;22.098;2022-11-23T05:28:52;46.72;;;22.67;;
70825;SDS011;58446;41.490;22.098;2022-11-23T05:31:17;41.77;;;23.13;;
70825;SDS011;58446;41.490;22.098;2022-11-23T05:33:43;40.95;;;21.77;;
70825;SDS011;58446;41.490;22.098;2022-11-23T05:36:09;34.03;;;17.98;;
70825;SDS011;58446;41.490;22.098;2022-11-23T05:38:38;34.00;;;18.13;;
70825;SDS011;58446;41.490;22.098;2022-11-23T05:41:05;30.70;;;16.77;;
70825;SDS011;58446;41.490;22.098;2022-11-23T05:43:32;24.83;;;14.15;;
70825;SDS011;58446;41.490;22.098;2022-11-23T05:45:59;22.88;;;14.45;;
70825;SDS011;58446;41.490;22.098;2022-11-23T05:48:25;18.33;;;11.33;;
70825;SDS011;58446;41.490;22.098;2022-11-23T05:50:51;32.03;;;17.25;;
70825;SDS011;58446;41.490;22.098;2022-11-23T05:53:17;14.52;;;8.65;;
70825;SDS011;58446;41.490;22.098;2022-11-23T05:55:42;18.90;;;10.97;;
70825;SDS011;58446;41.490;22.098;2022-11-23T05:58:08;14.13;;;9.07;;
70825;SDS011;58446;41.490;22.098;2022-11-23T06:00:34;14.53;;;8.90;;
70825;SDS011;58446;41.490;22.098;2022-11-23T06:03:00;18.93;;;11.80;;
70825;SDS011;58446;41.490;22.098;2022-11-23T06:05:26;35.33;;;12.13;;
70825;SDS011;58446;41.490;22.098;2022-11-23T06:07:53;29.92;;;12.10;;
70825;SDS011;58446;41.490;22.098;2022-11-23T06:10:18;41.07;;;27.07;;
70825;SDS011;58446;41.490;22.098;2022-11-23T06:12:44;16.85;;;10.85;;
70825;SDS011;58446;41.490;22.098;2022-11-23T06:15:11;28.27;;;16.20;;
70825;SDS011;58446;41.490;22.098;2022-11-23T06:17:37;26.73;;;14.95;;
70825;SDS011;58446;41.490;22.098;2022-11-23T06:20:05;32.78;;;20.45;;
70825;SDS011;58446;41.490;22.098;2022-11-23T06:22:31;30.27;;;14.73;;
70825;SDS011;58446;41.490;22.098;2022-11-23T06:24:57;30.73;;;16.37;;
70825;SDS011;58446;41.490;22.098;2022-11-23T06:27:22;33.75;;;21.38;;
70825;SDS011;58446;41.490;22.098;2022-11-23T06:29:48;79.93;;;46.43;;
70825;SDS011;58446;41.490;22.098;2022-11-23T06:32:14;82.33;;;49.43;;
70825;SDS011;58446;41.490;22.098;2022-11-23T06:34:40;61.50;;;35.83;;
70825;SDS011;58446;41.490;22.098;2022-11-23T06:37:05;54.97;;;33.22;;
70825;SDS011;58446;41.490;22.098;2022-11-23T06:39:31;79.70;;;48.13;;
70825;SDS011;58446;41.490;22.098;2022-11-23T06:41:57;89.45;;;50.65;;
70825;SDS011;58446;41.490;22.098;2022-11-23T06:44:22;94.13;;;53.20;;
70825;SDS011;58446;41.490;22.098;2022-11-23T06:46:48;105.93;;;58.43;;
70825;SDS011;58446;41.490;22.098;2022-11-23T06:49:14;89.30;;;50.20;;
70825;SDS011;58446;41.490;22.098;2022-11-23T06:51:41;85.78;;;51.58;;
70825;SDS011;58446;41.490;22.098;2022-11-23T06:54:07;101.00;;;54.60;;
70825;SDS011;58446;41.490;22.098;2022-11-23T06:56:33;79.45;;;48.33;;
70825;SDS011;58446;41.490;22.098;2022-11-23T06:58:58;72.18;;;44.35;;
70825;SDS011;58446;41.490;22.098;2022-11-23T07:01:24;72.53;;;44.23;;
70825;SDS011;58446;41.490;22.098;2022-11-23T07:03:50;69.90;;;42.27;;
70825;SDS011;58446;41.490;22.098;2022-11-23T07:06:15;61.75;;;40.03;;
70825;SDS011;58446;41.490;22.098;2022-11-23T07:08:41;34.50;;;23.43;;
70825;SDS011;58446;41.490;22.098;2022-11-23T07:11:08;25.55;;;19.15;;
70825;SDS011;58446;41.490;22.098;2022-11-23T07:13:35;27.90;;;19.52;;
70825;SDS011;58446;41.490;22.098;2022-11-23T07:16:01;101.47;;;65.13;;
70825;SDS011;58446;41.490;22.098;2022-11-23T07:18:27;64.13;;;41.43;;
70825;SDS011;58446;41.490;22.098;2022-11-23T07:20:53;58.42;;;39.28;;
70825;SDS011;58446;41.490;22.098;2022-11-23T07:23:21;56.47;;;35.77;;
70825;SDS011;58446;41.490;22.098;2022-11-23T07:25:47;61.80;;;37.78;;
70825;SDS011;58446;41.490;22.098;2022-11-23T07:28:12;52.73;;;34.57;;
70825;SDS011;58446;41.490;22.098;2022-11-23T07:30:39;48.63;;;29.27;;
70825;SDS011;58446;41.490;22.098;2022-11-23T07:33:06;39.25;;;26.73;;
70825;SDS011;58446;41.490;22.098;2022-11-23T07:35:33;38.87;;;26.50;;
70825;SDS011;58446;41.490;22.098;2022-11-23T07:38:00;29.75;;;18.70;;
70825;SDS011;58446;41.490;22.098;2022-11-23T07:40:27;30.88;;;19.10;;
70825;SDS011;58446;41.490;22.098;2022-11-23T07:42:56;24.02;;;14.10;;
70825;SDS011;58446;41.490;22.098;2022-11-23T07:45:24;14.88;;;8.55;;
70825;SDS011;58446;41.490;22.098;2022-11-23T07:47:56;12.80;;;7.93;;
70825;SDS011;58446;41.490;22.098;2022-11-23T07:50:23;10.70;;;6.50;;
70825;SDS011;58446;41.490;22.098;2022-11-23T07:52:48;17.53;;;11.37;;
70825;SDS011;58446;41.490;22.098;2022-11-23T07:55:14;17.77;;;11.95;;
70825;SDS011;58446;41.490;22.098;2022-11-23T07:57:40;14.60;;;8.97;;
70825;SDS011;58446;41.490;22.098;2022-11-23T08:00:05;12.73;;;9.23;;
70825;SDS011;58446;41.490;22.098;2022-11-23T08:02:32;19.05;;;12.50;;
70825;SDS011;58446;41.490;22.098;2022-11-23T08:04:57;15.60;;;11.23;;
70825;SDS011;58446;41.490;22.098;2022-11-23T08:07:23;16.07;;;12.03;;
70825;SDS011;58446;41.490;22.098;2022-11-23T08:09:49;18.40;;;12.50;;
70825;SDS011;58446;41.490;22.098;2022-11-23T08:12:14;15.47;;;10.10;;
70825;SDS011;58446;41.490;22.098;2022-11-23T08:14:40;15.33;;;10.83;;
70825;SDS011;58446;41.490;22.098;2022-11-23T08:17:05;9.10;;;5.22;;
70825;SDS011;58446;41.490;22.098;2022-11-23T08:19:31;12.00;;;6.00;;
70825;SDS011;58446;41.490;22.098;2022-11-23T08:21:57;11.48;;;6.97;;
70825;SDS011;58446;41.490;22.098;2022-11-23T08:24:22;11.77;;;6.63;;
70825;SDS011;58446;41.490;22.098;2022-11-23T08:26:48;9.07;;;5.47;;
70825;SDS011;58446;41.490;22.098;2022-11-23T08:29:13;7.25;;;4.70;;
70825;SDS011;58446;41.490;22.098;2022-11-23T08:31:39;10.03;;;4.93;;
70825;SDS011;58446;41.490;22.098;2022-11-23T08:34:05;9.43;;;4.63;;
70825;SDS011;58446;41.490;22.098;2022-11-23T08:36:30;9.03;;;5.00;;
70825;SDS011;58446;41.490;22.098;2022-11-23T08:38:56;10.18;;;4.50;;
70825;SDS011;58446;41.490;22.098;2022-11-23T08:41:22;11.43;;;5.20;;
70825;SDS011;58446;41.490;22.098;2022-11-23T08:43:48;8.60;;;4.43;;
70825;SDS011;58446;41.490;22.098;2022-11-23T08:46:16;6.57;;;3.90;;
70825;SDS011;58446;41.490;22.098;2022-11-23T08:48:42;10.90;;;5.50;;
70825;SDS011;58446;41.490;22.098;2022-11-23T08:51:08;9.97;;;5.60;;
70825;SDS011;58446;41.490;22.098;2022-11-23T08:53:33;9.63;;;3.92;;
70825;SDS011;58446;41.490;22.098;2022-11-23T08:56:00;10.07;;;5.40;;
70825;SDS011;58446;41.490;22.098;2022-11-23T08:58:30;8.50;;;4.60;;
70825;SDS011;58446;41.490;22.098;2022-11-23T09:00:55;7.95;;;3.90;;
70825;SDS011;58446;41.490;22.098;2022-11-23T09:03:21;11.07;;;6.82;;
70825;SDS011;58446;41.490;22.098;2022-11-23T09:05:47;6.13;;;3.40;;
70825;SDS011;58446;41.490;22.098;2022-11-23T09:08:12;11.05;;;6.45;;
70825;SDS011;58446;41.490;22.098;2022-11-23T09:10:40;7.23;;;4.10;;
70825;SDS011;58446;41.490;22.098;2022-11-23T09:13:06;5.53;;;3.17;;
70825;SDS011;58446;41.490;22.098;2022-11-23T09:15:31;7.17;;;3.70;;
70825;SDS011;58446;41.490;22.098;2022-11-23T09:17:57;9.50;;;3.87;;
70825;SDS011;58446;41.490;22.098;2022-11-23T09:20:23;8.13;;;3.83;;
70825;SDS011;58446;41.490;22.098;2022-11-23T09:22:49;9.40;;;3.58;;
70825;SDS011;58446;41.490;22.098;2022-11-23T09:25:16;6.97;;;3.22;;
70825;SDS011;58446;41.490;22.098;2022-11-23T09:27:42;8.97;;;4.87;;
70825;SDS011;58446;41.490;22.098;2022-11-23T09:30:07;6.38;;;2.88;;
70825;SDS011;58446;41.490;22.098;2022-11-23T09:32:34;7.17;;;3.30;;
70825;SDS011;58446;41.490;22.098;2022-11-23T09:34:59;6.47;;;3.75;;
70825;SDS011;58446;41.490;22.098;2022-11-23T09:37:25;5.70;;;3.20;;
70825;SDS011;58446;41.490;22.098;2022-11-23T09:39:50;9.15;;;4.63;;
70825;SDS011;58446;41.490;22.098;2022-11-23T09:42:32;6.77;;;3.70;;
70825;SDS011;58446;41.490;22.098;2022-11-23T09:45:16;7.93;;;3.92;;
70825;SDS011;58446;41.490;22.098;2022-11-23T09:48:13;7.03;;;3.95;;
70825;SDS011;58446;41.490;22.098;2022-11-23T09:50:47;6.03;;;3.70;;
70825;SDS011;58446;41.490;22.098;2022-11-23T09:53:21;7.43;;;4.00;;
70825;SDS011;58446;41.490;22.098;2022-11-23T09:55:54;7.93;;;4.45;;
70825;SDS011;58446;41.490;22.098;2022-11-23T09:58:22;8.82;;;3.95;;
70825;SDS011;58446;41.490;22.098;2022-11-23T10:03:35;11.53;;;7.30;;
70825;SDS011;58446;41.490;22.098;2022-11-23T10:11:51;14.40;;;7.75;;
70825;SDS011;58446;41.490;22.098;2022-11-23T10:20:27;11.93;;;7.18;;
70825;SDS011;58446;41.490;22.098;2022-11-23T10:26:17;12.93;;;9.68;;
70825;SDS011;58446;41.490;22.098;2022-11-23T10:28:45;17.85;;;13.40;;
70825;SDS011;58446;41.490;22.098;2022-11-23T10:31:12;17.07;;;10.10;;
70825;SDS011;58446;41.490;22.098;2022-11-23T10:33:42;10.27;;;6.10;;
70825;SDS011;58446;41.490;22.098;2022-11-23T10:36:17;13.77;;;8.55;;
70825;SDS011;58446;41.490;22.098;2022-11-23T10:38:42;9.57;;;4.77;;
70825;SDS011;58446;41.490;22.098;2022-11-23T10:41:10;9.98;;;6.70;;
70825;SDS011;58446;41.490;22.098;2022-11-23T10:43:40;7.88;;;5.10;;
70825;SDS011;58446;41.490;22.098;2022-11-23T10:46:24;8.85;;;4.45;;
70825;SDS011;58446;41.490;22.098;2022-11-23T10:51:56;6.53;;;3.80;;
70825;SDS011;58446;41.490;22.098;2022-11-23T10:57:21;8.77;;;4.43;;
70825;SDS011;58446;41.490;22.098;2022-11-23T11:00:16;6.72;;;4.55;;
70825;SDS011;58446;41.490;22.098;2022-11-23T11:02:45;10.65;;;6.97;;
70825;SDS011;58446;41.490;22.098;2022-11-23T11:08:02;18.23;;;8.45;;
70825;SDS011;58446;41.490;22.098;2022-11-23T11:10:39;49.40;;;18.33;;
70825;SDS011;58446;41.490;22.098;2022-11-23T11:13:29;24.10;;;9.82;;
70825;SDS011;58446;41.490;22.098;2022-11-23T11:16:21;7.95;;;4.13;;
70825;SDS011;58446;41.490;22.098;2022-11-23T11:18:52;11.17;;;5.60;;
70825;SDS011;58446;41.490;22.098;2022-11-23T11:21:18;23.67;;;10.38;;
70825;SDS011;58446;41.490;22.098;2022-11-23T11:23:50;16.00;;;6.22;;
70825;SDS011;58446;41.490;22.098;2022-11-23T11:26:21;17.60;;;7.38;;
70825;SDS011;58446;41.490;22.098;2022-11-23T11:28:49;16.60;;;6.65;;
70825;SDS011;58446;41.490;22.098;2022-11-23T11:33:50;29.27;;;12.02;;
70825;SDS011;58446;41.490;22.098;2022-11-23T11:36:35;8.13;;;4.47;;
70825;SDS011;58446;41.490;22.098;2022-11-23T11:39:06;11.63;;;6.60;;
70825;SDS011;58446;41.490;22.098;2022-11-23T11:41:38;14.32;;;7.30;;
70825;SDS011;58446;41.490;22.098;2022-11-23T11:44:08;23.23;;;11.57;;
70825;SDS011;58446;41.490;22.098;2022-11-23T11:46:42;19.67;;;10.52;;
70825;SDS011;58446;41.490;22.098;2022-11-23T11:49:27;46.10;;;22.13;;
70825;SDS011;58446;41.490;22.098;2022-11-23T11:57:01;14.10;;;7.43;;
70825;SDS011;58446;41.490;22.098;2022-11-23T11:59:33;26.05;;;15.27;;
70825;SDS011;58446;41.490;22.098;2022-11-23T12:05:06;17.52;;;9.80;;
70825;SDS011;58446;41.490;22.098;2022-11-23T12:07:36;18.75;;;11.43;;
70825;SDS011;58446;41.490;22.098;2022-11-23T12:12:39;8.10;;;5.18;;
70825;SDS011;58446;41.490;22.098;2022-11-23T12:15:05;10.10;;;6.00;;
70825;SDS011;58446;41.490;22.098;2022-11-23T12:20:29;16.20;;;8.25;;
70825;SDS011;58446;41.490;22.098;2022-11-23T12:26:02;9.40;;;5.47;;
70825;SDS011;58446;41.490;22.098;2022-11-23T12:31:25;13.93;;;7.40;;
70825;SDS011;58446;41.490;22.098;2022-11-23T12:40:09;20.27;;;10.73;;
70825;SDS011;58446;41.490;22.098;2022-11-23T12:42:47;14.23;;;8.43;;
70825;SDS011;58446;41.490;22.098;2022-11-23T12:47:50;18.42;;;8.60;;
70825;SDS011;58446;41.490;22.098;2022-11-23T12:56:01;25.33;;;16.07;;
70825;SDS011;58446;41.490;22.098;2022-11-23T12:58:36;17.02;;;11.20;;
70825;SDS011;58446;41.490;22.098;2022-11-23T13:01:11;17.40;;;11.68;;
70825;SDS011;58446;41.490;22.098;2022-11-23T13:12:51;9.60;;;6.15;;
70825;SDS011;58446;41.490;22.098;2022-11-23T13:23:37;13.20;;;8.63;;
70825;SDS011;58446;41.490;22.098;2022-11-23T13:28:44;20.23;;;12.57;;
70825;SDS011;58446;41.490;22.098;2022-11-23T13:33:41;11.00;;;6.88;;
70825;SDS011;58446;41.490;22.098;2022-11-23T13:36:09;39.17;;;18.53;;
70825;SDS011;58446;41.490;22.098;2022-11-23T13:38:37;40.63;;;19.15;;
70825;SDS011;58446;41.490;22.098;2022-11-23T13:43:54;31.27;;;16.15;;
70825;SDS011;58446;41.490;22.098;2022-11-23T13:46:24;22.33;;;11.63;;
70825;SDS011;58446;41.490;22.098;2022-11-23T13:48:56;16.42;;;9.43;;
70825;SDS011;58446;41.490;22.098;2022-11-23T13:51:32;14.68;;;9.23;;
70825;SDS011;58446;41.490;22.098;2022-11-23T13:54:03;15.80;;;10.20;;
70825;SDS011;58446;41.490;22.098;2022-11-23T13:56:31;9.93;;;6.17;;
70825;SDS011;58446;41.490;22.098;2022-11-23T13:59:22;9.02;;;5.40;;
70825;SDS011;58446;41.490;22.098;2022-11-23T14:04:35;8.30;;;5.00;;
70825;SDS011;58446;41.490;22.098;2022-11-23T14:07:10;16.70;;;8.35;;
70825;SDS011;58446;41.490;22.098;2022-11-23T14:09:44;15.33;;;9.13;;
70825;SDS011;58446;41.490;22.098;2022-11-23T14:17:41;22.88;;;15.63;;
70825;SDS011;58446;41.490;22.098;2022-11-23T14:20:40;15.05;;;9.73;;
70825;SDS011;58446;41.490;22.098;2022-11-23T14:26:29;9.40;;;6.57;;
70825;SDS011;58446;41.490;22.098;2022-11-23T14:35:07;10.07;;;7.30;;
70825;SDS011;58446;41.490;22.098;2022-11-23T14:40:27;8.85;;;5.90;;
70825;SDS011;58446;41.490;22.098;2022-11-23T14:43:14;10.57;;;7.72;;
70825;SDS011;58446;41.490;22.098;2022-11-23T14:45:43;12.45;;;8.60;;
70825;SDS011;58446;41.490;22.098;2022-11-23T14:48:25;24.35;;;15.13;;
70825;SDS011;58446;41.490;22.098;2022-11-23T14:50:56;15.50;;;9.97;;
70825;SDS011;58446;41.490;22.098;2022-11-23T14:53:32;41.13;;;21.00;;
70825;SDS011;58446;41.490;22.098;2022-11-23T14:56:00;23.90;;;15.27;;
70825;SDS011;58446;41.490;22.098;2022-11-23T14:58:27;15.57;;;10.27;;
70825;SDS011;58446;41.490;22.098;2022-11-23T15:01:02;16.63;;;10.47;;
70825;SDS011;58446;41.490;22.098;2022-11-23T15:03:29;15.55;;;9.15;;
70825;SDS011;58446;41.490;22.098;2022-11-23T15:06:09;21.40;;;12.27;;
70825;SDS011;58446;41.490;22.098;2022-11-23T15:08:43;20.00;;;10.80;;
70825;SDS011;58446;41.490;22.098;2022-11-23T15:11:18;21.40;;;11.43;;
70825;SDS011;58446;41.490;22.098;2022-11-23T15:13:48;16.53;;;8.87;;
70825;SDS011;58446;41.490;22.098;2022-11-23T15:16:17;20.55;;;10.43;;
70825;SDS011;58446;41.490;22.098;2022-11-23T15:18:44;21.92;;;10.90;;
70825;SDS011;58446;41.490;22.098;2022-11-23T15:23:46;19.97;;;12.10;;
70825;SDS011;58446;41.490;22.098;2022-11-23T15:26:15;24.70;;;17.27;;
70825;SDS011;58446;41.490;22.098;2022-11-23T15:28:43;23.45;;;15.90;;
70825;SDS011;58446;41.490;22.098;2022-11-23T15:31:29;23.13;;;17.70;;
70825;SDS011;58446;41.490;22.098;2022-11-23T15:34:03;17.88;;;12.95;;
70825;SDS011;58446;41.490;22.098;2022-11-23T15:36:40;28.52;;;16.65;;
70825;SDS011;58446;41.490;22.098;2022-11-23T15:39:06;25.35;;;14.35;;
70825;SDS011;58446;41.490;22.098;2022-11-23T15:41:40;29.15;;;19.52;;
70825;SDS011;58446;41.490;22.098;2022-11-23T15:44:16;24.60;;;15.90;;
70825;SDS011;58446;41.490;22.098;2022-11-23T15:46:48;26.85;;;17.83;;
70825;SDS011;58446;41.490;22.098;2022-11-23T15:49:16;31.40;;;19.92;;
70825;SDS011;58446;41.490;22.098;2022-11-23T15:51:44;20.17;;;11.85;;
70825;SDS011;58446;41.490;22.098;2022-11-23T15:54:13;50.30;;;30.07;;
70825;SDS011;58446;41.490;22.098;2022-11-23T15:56:43;24.63;;;15.32;;
70825;SDS011;58446;41.490;22.098;2022-11-23T16:02:05;39.30;;;21.08;;
70825;SDS011;58446;41.490;22.098;2022-11-23T16:04:38;20.67;;;12.73;;
70825;SDS011;58446;41.490;22.098;2022-11-23T16:09:45;20.17;;;11.80;;
70825;SDS011;58446;41.490;22.098;2022-11-23T16:14:46;13.13;;;9.10;;
70825;SDS011;58446;41.490;22.098;2022-11-23T16:17:18;11.73;;;7.87;;
70825;SDS011;58446;41.490;22.098;2022-11-23T16:19:54;17.38;;;8.18;;
70825;SDS011;58446;41.490;22.098;2022-11-23T16:22:26;16.85;;;10.60;;
70825;SDS011;58446;41.490;22.098;2022-11-23T16:30:26;19.42;;;11.63;;
70825;SDS011;58446;41.490;22.098;2022-11-23T16:33:00;23.45;;;13.82;;
70825;SDS011;58446;41.490;22.098;2022-11-23T16:35:25;20.53;;;11.67;;
70825;SDS011;58446;41.490;22.098;2022-11-23T16:37:51;20.47;;;12.07;;
70825;SDS011;58446;41.490;22.098;2022-11-23T16:40:17;26.30;;;14.07;;
70825;SDS011;58446;41.490;22.098;2022-11-23T16:42:43;19.55;;;14.25;;
70825;SDS011;58446;41.490;22.098;2022-11-23T16:45:09;16.15;;;11.63;;